<?xml version="1.0" encoding="UTF-8" standalone="no" ?>
<gpx xmlns="http://www.topografix.com/GPX/1/1" xmlns:xsi="http://www.w3.org/2001/XMLSchema-instance" xsi:schemaLocation="http://www.topografix.com/GPX/1/1 http://www.topografix.com/GPX/1/1/gpx.xsd" version="1.1" creator="VisuGPX - https://www.visugpx.com">
  <metadata>
    <name>Trail des Glieres 2021  11 km communication.fr</name>
  </metadata>
  <trk>
    <name><![CDATA[Trail des Glieres 2021  11 km sur TraceDeTrail.fr]]></name>
    <extensions>
      <line xmlns="http://www.topografix.com/GPX/gpx_style/0/2">
        <color>0000FF</color>
        <width>4</width>
      </line>
    </extensions>
    <trkseg>
      <trkpt lat="45.99741" lon="6.24995">
        <ele>683</ele>
        <time>2000-01-01T00:52:37.000Z</time>
      </trkpt>
      <trkpt lat="45.99767" lon="6.25009">
        <ele>683</ele>
        <time>2000-01-01T00:52:47.000Z</time>
      </trkpt>
      <trkpt lat="45.99807" lon="6.2503">
        <ele>685</ele>
        <time>2000-01-01T00:52:57.000Z</time>
      </trkpt>
      <trkpt lat="45.99814" lon="6.24981">
        <ele>687</ele>
        <time>2000-01-01T00:53:07.000Z</time>
      </trkpt>
      <trkpt lat="45.99821" lon="6.24932">
        <ele>687</ele>
        <time>2000-01-01T00:53:17.000Z</time>
      </trkpt>
      <trkpt lat="45.99834" lon="6.24839">
        <ele>683</ele>
        <time>2000-01-01T00:53:27.000Z</time>
      </trkpt>
      <trkpt lat="45.99863" lon="6.24847">
        <ele>686</ele>
        <time>2000-01-01T00:53:37.000Z</time>
      </trkpt>
      <trkpt lat="45.99913" lon="6.24861">
        <ele>689</ele>
        <time>2000-01-01T00:53:47.000Z</time>
      </trkpt>
      <trkpt lat="45.99957" lon="6.24846">
        <ele>702</ele>
        <time>2000-01-01T00:53:57.000Z</time>
      </trkpt>
      <trkpt lat="45.99981" lon="6.24853">
        <ele>717</ele>
        <time>2000-01-01T00:54:07.000Z</time>
      </trkpt>
      <trkpt lat="46.00006" lon="6.24861">
        <ele>717</ele>
        <time>2000-01-01T00:54:17.000Z</time>
      </trkpt>
      <trkpt lat="46.0002" lon="6.24889">
        <ele>724</ele>
        <time>2000-01-01T00:54:27.000Z</time>
      </trkpt>
      <trkpt lat="46.00065" lon="6.24906">
        <ele>732</ele>
        <time>2000-01-01T00:54:37.000Z</time>
      </trkpt>
      <trkpt lat="46.00078" lon="6.24874">
        <ele>736</ele>
        <time>2000-01-01T00:54:47.000Z</time>
      </trkpt>
      <trkpt lat="46.00093" lon="6.24835">
        <ele>737</ele>
        <time>2000-01-01T00:54:57.000Z</time>
      </trkpt>
      <trkpt lat="46.00132" lon="6.24816">
        <ele>751</ele>
        <time>2000-01-01T00:55:07.000Z</time>
      </trkpt>
      <trkpt lat="46.00154" lon="6.24785">
        <ele>751</ele>
        <time>2000-01-01T00:55:17.000Z</time>
      </trkpt>
      <trkpt lat="46.00195" lon="6.24757">
        <ele>761</ele>
        <time>2000-01-01T00:55:27.000Z</time>
      </trkpt>
      <trkpt lat="46.00217" lon="6.2474">
        <ele>768</ele>
        <time>2000-01-01T00:55:37.000Z</time>
      </trkpt>
      <trkpt lat="46.00242" lon="6.2472">
        <ele>771</ele>
        <time>2000-01-01T00:55:47.000Z</time>
      </trkpt>
      <trkpt lat="46.00281" lon="6.24691">
        <ele>781</ele>
        <time>2000-01-01T00:55:57.000Z</time>
      </trkpt>
      <trkpt lat="46.00323" lon="6.24667">
        <ele>792</ele>
        <time>2000-01-01T00:56:07.000Z</time>
      </trkpt>
      <trkpt lat="46.00366" lon="6.24649">
        <ele>801</ele>
        <time>2000-01-01T00:56:17.000Z</time>
      </trkpt>
      <trkpt lat="46.00389" lon="6.24637">
        <ele>806</ele>
        <time>2000-01-01T00:56:27.000Z</time>
      </trkpt>
      <trkpt lat="46.00416" lon="6.24623">
        <ele>807</ele>
        <time>2000-01-01T00:56:37.000Z</time>
      </trkpt>
      <trkpt lat="46.0044" lon="6.24622">
        <ele>807</ele>
        <time>2000-01-01T00:56:47.000Z</time>
      </trkpt>
      <trkpt lat="46.00464" lon="6.24621">
        <ele>820</ele>
        <time>2000-01-01T00:56:57.000Z</time>
      </trkpt>
      <trkpt lat="46.0051" lon="6.24628">
        <ele>822</ele>
        <time>2000-01-01T00:57:07.000Z</time>
      </trkpt>
      <trkpt lat="46.00533" lon="6.24617">
        <ele>828</ele>
        <time>2000-01-01T00:57:17.000Z</time>
      </trkpt>
      <trkpt lat="46.00557" lon="6.24606">
        <ele>835</ele>
        <time>2000-01-01T00:57:27.000Z</time>
      </trkpt>
      <trkpt lat="46.00582" lon="6.24596">
        <ele>838</ele>
        <time>2000-01-01T00:57:37.000Z</time>
      </trkpt>
      <trkpt lat="46.00615" lon="6.24584">
        <ele>846</ele>
        <time>2000-01-01T00:57:47.000Z</time>
      </trkpt>
      <trkpt lat="46.00638" lon="6.24566">
        <ele>859</ele>
        <time>2000-01-01T00:57:57.000Z</time>
      </trkpt>
      <trkpt lat="46.00669" lon="6.24542">
        <ele>862</ele>
        <time>2000-01-01T00:58:07.000Z</time>
      </trkpt>
      <trkpt lat="46.00686" lon="6.24517">
        <ele>866</ele>
        <time>2000-01-01T00:58:17.000Z</time>
      </trkpt>
      <trkpt lat="46.00703" lon="6.24492">
        <ele>873</ele>
        <time>2000-01-01T00:58:27.000Z</time>
      </trkpt>
      <trkpt lat="46.0072" lon="6.24469">
        <ele>875</ele>
        <time>2000-01-01T00:58:37.000Z</time>
      </trkpt>
      <trkpt lat="46.00738" lon="6.24445">
        <ele>877</ele>
        <time>2000-01-01T00:58:47.000Z</time>
      </trkpt>
      <trkpt lat="46.00775" lon="6.24413">
        <ele>882</ele>
        <time>2000-01-01T00:58:57.000Z</time>
      </trkpt>
      <trkpt lat="46.00799" lon="6.24405">
        <ele>887</ele>
        <time>2000-01-01T00:59:07.000Z</time>
      </trkpt>
      <trkpt lat="46.00825" lon="6.24396">
        <ele>890</ele>
        <time>2000-01-01T00:59:17.000Z</time>
      </trkpt>
      <trkpt lat="46.00857" lon="6.24405">
        <ele>891</ele>
        <time>2000-01-01T00:59:27.000Z</time>
      </trkpt>
      <trkpt lat="46.0089" lon="6.24414">
        <ele>893</ele>
        <time>2000-01-01T00:59:37.000Z</time>
      </trkpt>
      <trkpt lat="46.00935" lon="6.24426">
        <ele>891</ele>
        <time>2000-01-01T00:59:47.000Z</time>
      </trkpt>
      <trkpt lat="46.00968" lon="6.24431">
        <ele>890</ele>
        <time>2000-01-01T00:59:57.000Z</time>
      </trkpt>
      <trkpt lat="46.00988" lon="6.24411">
        <ele>890</ele>
        <time>2000-01-01T01:00:07.000Z</time>
      </trkpt>
      <trkpt lat="46.01008" lon="6.24391">
        <ele>886</ele>
        <time>2000-01-01T01:00:17.000Z</time>
      </trkpt>
      <trkpt lat="46.0103" lon="6.24375">
        <ele>886</ele>
        <time>2000-01-01T01:00:27.000Z</time>
      </trkpt>
      <trkpt lat="46.01055" lon="6.24358">
        <ele>889</ele>
        <time>2000-01-01T01:00:37.000Z</time>
      </trkpt>
      <trkpt lat="46.01082" lon="6.24351">
        <ele>891</ele>
        <time>2000-01-01T01:00:47.000Z</time>
      </trkpt>
      <trkpt lat="46.0112" lon="6.24341">
        <ele>891</ele>
        <time>2000-01-01T01:00:57.000Z</time>
      </trkpt>
      <trkpt lat="46.01162" lon="6.24326">
        <ele>895</ele>
        <time>2000-01-01T01:01:07.000Z</time>
      </trkpt>
      <trkpt lat="46.01195" lon="6.2433">
        <ele>896</ele>
        <time>2000-01-01T01:01:17.000Z</time>
      </trkpt>
      <trkpt lat="46.01227" lon="6.24333">
        <ele>898</ele>
        <time>2000-01-01T01:01:27.000Z</time>
      </trkpt>
      <trkpt lat="46.0127" lon="6.24338">
        <ele>898</ele>
        <time>2000-01-01T01:01:37.000Z</time>
      </trkpt>
      <trkpt lat="46.0127" lon="6.2438">
        <ele>906</ele>
        <time>2000-01-01T01:01:47.000Z</time>
      </trkpt>
      <trkpt lat="46.01277" lon="6.24424">
        <ele>907</ele>
        <time>2000-01-01T01:01:57.000Z</time>
      </trkpt>
      <trkpt lat="46.01281" lon="6.24458">
        <ele>911</ele>
        <time>2000-01-01T01:02:07.000Z</time>
      </trkpt>
      <trkpt lat="46.01308" lon="6.24496">
        <ele>913</ele>
        <time>2000-01-01T01:02:17.000Z</time>
      </trkpt>
      <trkpt lat="46.01329" lon="6.2452">
        <ele>918</ele>
        <time>2000-01-01T01:02:27.000Z</time>
      </trkpt>
      <trkpt lat="46.01331" lon="6.24574">
        <ele>919</ele>
        <time>2000-01-01T01:02:37.000Z</time>
      </trkpt>
      <trkpt lat="46.01338" lon="6.2464">
        <ele>920</ele>
        <time>2000-01-01T01:02:47.000Z</time>
      </trkpt>
      <trkpt lat="46.01331" lon="6.24685">
        <ele>921</ele>
        <time>2000-01-01T01:02:57.000Z</time>
      </trkpt>
      <trkpt lat="46.01329" lon="6.24732">
        <ele>926</ele>
        <time>2000-01-01T01:03:07.000Z</time>
      </trkpt>
      <trkpt lat="46.01324" lon="6.24781">
        <ele>928</ele>
        <time>2000-01-01T01:03:17.000Z</time>
      </trkpt>
      <trkpt lat="46.01318" lon="6.24828">
        <ele>930</ele>
        <time>2000-01-01T01:03:27.000Z</time>
      </trkpt>
      <trkpt lat="46.01309" lon="6.24864">
        <ele>932</ele>
        <time>2000-01-01T01:03:37.000Z</time>
      </trkpt>
      <trkpt lat="46.01302" lon="6.24884">
        <ele>931.1</ele>
        <time>2000-01-01T01:03:47.000Z</time>
      </trkpt>
      <trkpt lat="46.01299" lon="6.24911">
        <ele>933</ele>
        <time>2000-01-01T01:03:57.000Z</time>
      </trkpt>
      <trkpt lat="46.01305" lon="6.24951">
        <ele>936</ele>
        <time>2000-01-01T01:04:07.000Z</time>
      </trkpt>
      <trkpt lat="46.01321" lon="6.24986">
        <ele>936</ele>
        <time>2000-01-01T01:04:17.000Z</time>
      </trkpt>
      <trkpt lat="46.01331" lon="6.2502">
        <ele>936</ele>
        <time>2000-01-01T01:04:27.000Z</time>
      </trkpt>
      <trkpt lat="46.01343" lon="6.25061">
        <ele>938</ele>
        <time>2000-01-01T01:04:37.000Z</time>
      </trkpt>
      <trkpt lat="46.01359" lon="6.25086">
        <ele>939</ele>
        <time>2000-01-01T01:04:47.000Z</time>
      </trkpt>
      <trkpt lat="46.01343" lon="6.25132">
        <ele>942</ele>
        <time>2000-01-01T01:04:57.000Z</time>
      </trkpt>
      <trkpt lat="46.01338" lon="6.25172">
        <ele>942</ele>
        <time>2000-01-01T01:05:07.000Z</time>
      </trkpt>
      <trkpt lat="46.01335" lon="6.25212">
        <ele>944</ele>
        <time>2000-01-01T01:05:17.000Z</time>
      </trkpt>
      <trkpt lat="46.01331" lon="6.25246">
        <ele>944</ele>
        <time>2000-01-01T01:05:27.000Z</time>
      </trkpt>
      <trkpt lat="46.01326" lon="6.25281">
        <ele>943</ele>
        <time>2000-01-01T01:05:37.000Z</time>
      </trkpt>
      <trkpt lat="46.01315" lon="6.25309">
        <ele>942</ele>
        <time>2000-01-01T01:05:47.000Z</time>
      </trkpt>
      <trkpt lat="46.01312" lon="6.25338">
        <ele>939</ele>
        <time>2000-01-01T01:05:57.000Z</time>
      </trkpt>
      <trkpt lat="46.01314" lon="6.25399">
        <ele>937</ele>
        <time>2000-01-01T01:06:07.000Z</time>
      </trkpt>
      <trkpt lat="46.0132" lon="6.25429">
        <ele>937</ele>
        <time>2000-01-01T01:06:17.000Z</time>
      </trkpt>
      <trkpt lat="46.0133" lon="6.25473">
        <ele>937</ele>
        <time>2000-01-01T01:06:27.000Z</time>
      </trkpt>
      <trkpt lat="46.01345" lon="6.255">
        <ele>937</ele>
        <time>2000-01-01T01:06:37.000Z</time>
      </trkpt>
      <trkpt lat="46.01355" lon="6.25528">
        <ele>938</ele>
        <time>2000-01-01T01:06:47.000Z</time>
      </trkpt>
      <trkpt lat="46.01367" lon="6.25556">
        <ele>938</ele>
        <time>2000-01-01T01:06:57.000Z</time>
      </trkpt>
      <trkpt lat="46.01379" lon="6.25594">
        <ele>939</ele>
        <time>2000-01-01T01:07:07.000Z</time>
      </trkpt>
      <trkpt lat="46.01391" lon="6.25624">
        <ele>947</ele>
        <time>2000-01-01T01:07:17.000Z</time>
      </trkpt>
      <trkpt lat="46.01403" lon="6.25652">
        <ele>948</ele>
        <time>2000-01-01T01:07:27.000Z</time>
      </trkpt>
      <trkpt lat="46.01411" lon="6.25677">
        <ele>948</ele>
        <time>2000-01-01T01:07:37.000Z</time>
      </trkpt>
      <trkpt lat="46.01421" lon="6.25697">
        <ele>942.1</ele>
        <time>2000-01-01T01:07:47.000Z</time>
      </trkpt>
      <trkpt lat="46.01454" lon="6.2577">
        <ele>947</ele>
        <time>2000-01-01T01:07:57.000Z</time>
      </trkpt>
      <trkpt lat="46.01473" lon="6.25806">
        <ele>947</ele>
        <time>2000-01-01T01:08:07.000Z</time>
      </trkpt>
      <trkpt lat="46.01487" lon="6.2584">
        <ele>949</ele>
        <time>2000-01-01T01:08:17.000Z</time>
      </trkpt>
      <trkpt lat="46.01505" lon="6.25869">
        <ele>951</ele>
        <time>2000-01-01T01:08:27.000Z</time>
      </trkpt>
      <trkpt lat="46.01517" lon="6.25894">
        <ele>951</ele>
        <time>2000-01-01T01:08:37.000Z</time>
      </trkpt>
      <trkpt lat="46.01539" lon="6.25935">
        <ele>952</ele>
        <time>2000-01-01T01:08:47.000Z</time>
      </trkpt>
      <trkpt lat="46.01551" lon="6.25963">
        <ele>952</ele>
        <time>2000-01-01T01:08:57.000Z</time>
      </trkpt>
      <trkpt lat="46.0157" lon="6.25986">
        <ele>951</ele>
        <time>2000-01-01T01:09:07.000Z</time>
      </trkpt>
      <trkpt lat="46.01593" lon="6.26014">
        <ele>950</ele>
        <time>2000-01-01T01:09:17.000Z</time>
      </trkpt>
      <trkpt lat="46.01612" lon="6.26034">
        <ele>947</ele>
        <time>2000-01-01T01:09:27.000Z</time>
      </trkpt>
      <trkpt lat="46.01633" lon="6.26055">
        <ele>945</ele>
        <time>2000-01-01T01:09:37.000Z</time>
      </trkpt>
      <trkpt lat="46.01668" lon="6.26094">
        <ele>947</ele>
        <time>2000-01-01T01:09:47.000Z</time>
      </trkpt>
      <trkpt lat="46.01693" lon="6.26124">
        <ele>949</ele>
        <time>2000-01-01T01:09:57.000Z</time>
      </trkpt>
      <trkpt lat="46.01719" lon="6.26154">
        <ele>952</ele>
        <time>2000-01-01T01:10:07.000Z</time>
      </trkpt>
      <trkpt lat="46.01745" lon="6.26187">
        <ele>952</ele>
        <time>2000-01-01T01:10:17.000Z</time>
      </trkpt>
      <trkpt lat="46.01766" lon="6.26231">
        <ele>952</ele>
        <time>2000-01-01T01:10:27.000Z</time>
      </trkpt>
      <trkpt lat="46.01786" lon="6.26276">
        <ele>949</ele>
        <time>2000-01-01T01:10:37.000Z</time>
      </trkpt>
      <trkpt lat="46.0181" lon="6.26326">
        <ele>947</ele>
        <time>2000-01-01T01:10:47.000Z</time>
      </trkpt>
      <trkpt lat="46.0183" lon="6.2638">
        <ele>947</ele>
        <time>2000-01-01T01:10:57.000Z</time>
      </trkpt>
      <trkpt lat="46.01844" lon="6.26415">
        <ele>947</ele>
        <time>2000-01-01T01:11:07.000Z</time>
      </trkpt>
      <trkpt lat="46.01852" lon="6.26446">
        <ele>947</ele>
        <time>2000-01-01T01:11:17.000Z</time>
      </trkpt>
      <trkpt lat="46.01854" lon="6.26476">
        <ele>947</ele>
        <time>2000-01-01T01:11:27.000Z</time>
      </trkpt>
      <trkpt lat="46.01852" lon="6.26511">
        <ele>947</ele>
        <time>2000-01-01T01:11:37.000Z</time>
      </trkpt>
      <trkpt lat="46.01855" lon="6.26551">
        <ele>947</ele>
        <time>2000-01-01T01:11:47.000Z</time>
      </trkpt>
      <trkpt lat="46.0186" lon="6.2661">
        <ele>950</ele>
        <time>2000-01-01T01:11:57.000Z</time>
      </trkpt>
      <trkpt lat="46.0187" lon="6.26659">
        <ele>948</ele>
        <time>2000-01-01T01:12:07.000Z</time>
      </trkpt>
      <trkpt lat="46.0188" lon="6.26722">
        <ele>947</ele>
        <time>2000-01-01T01:12:17.000Z</time>
      </trkpt>
      <trkpt lat="46.01886" lon="6.26762">
        <ele>947</ele>
        <time>2000-01-01T01:12:27.000Z</time>
      </trkpt>
      <trkpt lat="46.01894" lon="6.26823">
        <ele>947</ele>
        <time>2000-01-01T01:12:37.000Z</time>
      </trkpt>
      <trkpt lat="46.01898" lon="6.26865">
        <ele>944</ele>
        <time>2000-01-01T01:12:47.000Z</time>
      </trkpt>
      <trkpt lat="46.01907" lon="6.26899">
        <ele>942</ele>
        <time>2000-01-01T01:12:57.000Z</time>
      </trkpt>
      <trkpt lat="46.0192" lon="6.26938">
        <ele>941</ele>
        <time>2000-01-01T01:13:07.000Z</time>
      </trkpt>
      <trkpt lat="46.01939" lon="6.26971">
        <ele>938</ele>
        <time>2000-01-01T01:13:17.000Z</time>
      </trkpt>
      <trkpt lat="46.0196" lon="6.26987">
        <ele>938</ele>
        <time>2000-01-01T01:13:27.000Z</time>
      </trkpt>
      <trkpt lat="46.0197" lon="6.27024">
        <ele>929</ele>
        <time>2000-01-01T01:13:37.000Z</time>
      </trkpt>
      <trkpt lat="46.01979" lon="6.27061">
        <ele>918</ele>
        <time>2000-01-01T01:13:47.000Z</time>
      </trkpt>
      <trkpt lat="46.01979" lon="6.27084">
        <ele>918.5</ele>
        <time>2000-01-01T01:13:57.000Z</time>
      </trkpt>
      <trkpt lat="46.01964" lon="6.2715">
        <ele>918</ele>
        <time>2000-01-01T01:14:07.000Z</time>
      </trkpt>
      <trkpt lat="46.01962" lon="6.27183">
        <ele>918</ele>
        <time>2000-01-01T01:14:17.000Z</time>
      </trkpt>
      <trkpt lat="46.01967" lon="6.27197">
        <ele>912</ele>
        <time>2000-01-01T01:14:27.000Z</time>
      </trkpt>
      <trkpt lat="46.01993" lon="6.27239">
        <ele>917</ele>
        <time>2000-01-01T01:14:37.000Z</time>
      </trkpt>
      <trkpt lat="46.01999" lon="6.27268">
        <ele>917</ele>
        <time>2000-01-01T01:14:47.000Z</time>
      </trkpt>
      <trkpt lat="46.0201" lon="6.27305">
        <ele>922</ele>
        <time>2000-01-01T01:14:57.000Z</time>
      </trkpt>
      <trkpt lat="46.02025" lon="6.27359">
        <ele>932</ele>
        <time>2000-01-01T01:15:07.000Z</time>
      </trkpt>
      <trkpt lat="46.02035" lon="6.27403">
        <ele>934</ele>
        <time>2000-01-01T01:15:17.000Z</time>
      </trkpt>
      <trkpt lat="46.02041" lon="6.27446">
        <ele>935</ele>
        <time>2000-01-01T01:15:27.000Z</time>
      </trkpt>
      <trkpt lat="46.02052" lon="6.27482">
        <ele>933</ele>
        <time>2000-01-01T01:15:37.000Z</time>
      </trkpt>
      <trkpt lat="46.02063" lon="6.27513">
        <ele>932</ele>
        <time>2000-01-01T01:15:47.000Z</time>
      </trkpt>
      <trkpt lat="46.02082" lon="6.27543">
        <ele>929</ele>
        <time>2000-01-01T01:15:57.000Z</time>
      </trkpt>
      <trkpt lat="46.02092" lon="6.27573">
        <ele>929</ele>
        <time>2000-01-01T01:16:07.000Z</time>
      </trkpt>
      <trkpt lat="46.02078" lon="6.27601">
        <ele>925</ele>
        <time>2000-01-01T01:16:17.000Z</time>
      </trkpt>
      <trkpt lat="46.02066" lon="6.27623">
        <ele>923</ele>
        <time>2000-01-01T01:16:27.000Z</time>
      </trkpt>
      <trkpt lat="46.02061" lon="6.2764">
        <ele>920.2</ele>
        <time>2000-01-01T01:16:37.000Z</time>
      </trkpt>
      <trkpt lat="46.02051" lon="6.27669">
        <ele>922</ele>
        <time>2000-01-01T01:16:47.000Z</time>
      </trkpt>
      <trkpt lat="46.0204" lon="6.27682">
        <ele>919.4</ele>
        <time>2000-01-01T01:16:57.000Z</time>
      </trkpt>
      <trkpt lat="46.02022" lon="6.27706">
        <ele>913</ele>
        <time>2000-01-01T01:17:07.000Z</time>
      </trkpt>
      <trkpt lat="46.02006" lon="6.27722">
        <ele>913</ele>
        <time>2000-01-01T01:17:17.000Z</time>
      </trkpt>
      <trkpt lat="46.02002" lon="6.27749">
        <ele>913</ele>
        <time>2000-01-01T01:17:27.000Z</time>
      </trkpt>
      <trkpt lat="46.02006" lon="6.27813">
        <ele>918</ele>
        <time>2000-01-01T01:17:37.000Z</time>
      </trkpt>
      <trkpt lat="46.02013" lon="6.27848">
        <ele>918</ele>
        <time>2000-01-01T01:17:47.000Z</time>
      </trkpt>
      <trkpt lat="46.02006" lon="6.27888">
        <ele>918</ele>
        <time>2000-01-01T01:17:57.000Z</time>
      </trkpt>
      <trkpt lat="46.02001" lon="6.2792">
        <ele>916</ele>
        <time>2000-01-01T01:18:07.000Z</time>
      </trkpt>
      <trkpt lat="46.01999" lon="6.27959">
        <ele>915</ele>
        <time>2000-01-01T01:18:17.000Z</time>
      </trkpt>
      <trkpt lat="46.02011" lon="6.28004">
        <ele>915</ele>
        <time>2000-01-01T01:18:27.000Z</time>
      </trkpt>
      <trkpt lat="46.02022" lon="6.28041">
        <ele>914</ele>
        <time>2000-01-01T01:18:37.000Z</time>
      </trkpt>
      <trkpt lat="46.0203" lon="6.2807">
        <ele>914</ele>
        <time>2000-01-01T01:18:47.000Z</time>
      </trkpt>
      <trkpt lat="46.02039" lon="6.28096">
        <ele>913</ele>
        <time>2000-01-01T01:18:57.000Z</time>
      </trkpt>
      <trkpt lat="46.02066" lon="6.28118">
        <ele>912</ele>
        <time>2000-01-01T01:19:07.000Z</time>
      </trkpt>
      <trkpt lat="46.02103" lon="6.28138">
        <ele>909</ele>
        <time>2000-01-01T01:19:17.000Z</time>
      </trkpt>
      <trkpt lat="46.02126" lon="6.28161">
        <ele>906</ele>
        <time>2000-01-01T01:19:27.000Z</time>
      </trkpt>
      <trkpt lat="46.02138" lon="6.28176">
        <ele>903.9</ele>
        <time>2000-01-01T01:19:37.000Z</time>
      </trkpt>
      <trkpt lat="46.0214" lon="6.28194">
        <ele>903</ele>
        <time>2000-01-01T01:19:47.000Z</time>
      </trkpt>
      <trkpt lat="46.02147" lon="6.28229">
        <ele>903</ele>
        <time>2000-01-01T01:19:57.000Z</time>
      </trkpt>
      <trkpt lat="46.02154" lon="6.28269">
        <ele>903</ele>
        <time>2000-01-01T01:20:07.000Z</time>
      </trkpt>
      <trkpt lat="46.02163" lon="6.28308">
        <ele>901</ele>
        <time>2000-01-01T01:20:17.000Z</time>
      </trkpt>
      <trkpt lat="46.02178" lon="6.2837">
        <ele>899</ele>
        <time>2000-01-01T01:20:27.000Z</time>
      </trkpt>
      <trkpt lat="46.02185" lon="6.2841">
        <ele>896</ele>
        <time>2000-01-01T01:20:37.000Z</time>
      </trkpt>
      <trkpt lat="46.02187" lon="6.28445">
        <ele>886</ele>
        <time>2000-01-01T01:20:47.000Z</time>
      </trkpt>
      <trkpt lat="46.02189" lon="6.28484">
        <ele>880</ele>
        <time>2000-01-01T01:20:57.000Z</time>
      </trkpt>
      <trkpt lat="46.02189" lon="6.28522">
        <ele>879</ele>
        <time>2000-01-01T01:21:07.000Z</time>
      </trkpt>
      <trkpt lat="46.02186" lon="6.28549">
        <ele>879</ele>
        <time>2000-01-01T01:21:17.000Z</time>
      </trkpt>
      <trkpt lat="46.0218" lon="6.2857">
        <ele>877.1</ele>
        <time>2000-01-01T01:21:27.000Z</time>
      </trkpt>
      <trkpt lat="46.02168" lon="6.28582">
        <ele>879</ele>
        <time>2000-01-01T01:21:37.000Z</time>
      </trkpt>
      <trkpt lat="46.02157" lon="6.2859">
        <ele>872.3</ele>
        <time>2000-01-01T01:21:47.000Z</time>
      </trkpt>
      <trkpt lat="46.02159" lon="6.28608">
        <ele>866</ele>
        <time>2000-01-01T01:21:57.000Z</time>
      </trkpt>
      <trkpt lat="46.02158" lon="6.28627">
        <ele>871</ele>
        <time>2000-01-01T01:22:07.000Z</time>
      </trkpt>
      <trkpt lat="46.02152" lon="6.28649">
        <ele>865</ele>
        <time>2000-01-01T01:22:17.000Z</time>
      </trkpt>
      <trkpt lat="46.02132" lon="6.28655">
        <ele>865</ele>
        <time>2000-01-01T01:22:27.000Z</time>
      </trkpt>
      <trkpt lat="46.02117" lon="6.28654">
        <ele>864.8</ele>
        <time>2000-01-01T01:22:37.000Z</time>
      </trkpt>
      <trkpt lat="46.02089" lon="6.28596">
        <ele>862.1</ele>
        <time>2000-01-01T01:22:47.000Z</time>
      </trkpt>
      <trkpt lat="46.02057" lon="6.28591">
        <ele>860.3</ele>
      </trkpt>
      <trkpt lat="46.02023" lon="6.2859">
        <ele>859.2</ele>
        <time>2000-01-01T01:22:57.000Z</time>
      </trkpt>
      <trkpt lat="46.02004" lon="6.28588">
        <ele>858.1</ele>
      </trkpt>
      <trkpt lat="46.01982" lon="6.2859">
        <ele>856</ele>
        <time>2000-01-01T01:23:07.000Z</time>
      </trkpt>
      <trkpt lat="46.01974" lon="6.28604">
        <ele>853.3</ele>
      </trkpt>
      <trkpt lat="46.01975" lon="6.2862">
        <ele>851</ele>
      </trkpt>
      <trkpt lat="46.01988" lon="6.2865">
        <ele>848.9</ele>
      </trkpt>
      <trkpt lat="46.02008" lon="6.28677">
        <ele>847.8</ele>
      </trkpt>
      <trkpt lat="46.02013" lon="6.28725">
        <ele>844.6</ele>
        <time>2000-01-01T01:23:17.000Z</time>
      </trkpt>
      <trkpt lat="46.02018" lon="6.28753">
        <ele>846</ele>
        <time>2000-01-01T01:23:27.000Z</time>
      </trkpt>
      <trkpt lat="46.02024" lon="6.28782">
        <ele>846</ele>
        <time>2000-01-01T01:23:37.000Z</time>
      </trkpt>
      <trkpt lat="46.02026" lon="6.28813">
        <ele>846</ele>
        <time>2000-01-01T01:23:47.000Z</time>
      </trkpt>
      <trkpt lat="46.02023" lon="6.28849">
        <ele>846</ele>
        <time>2000-01-01T01:23:57.000Z</time>
      </trkpt>
      <trkpt lat="46.02019" lon="6.28881">
        <ele>846</ele>
        <time>2000-01-01T01:24:07.000Z</time>
      </trkpt>
      <trkpt lat="46.02013" lon="6.289">
        <ele>841.7</ele>
        <time>2000-01-01T01:24:17.000Z</time>
      </trkpt>
      <trkpt lat="46.01998" lon="6.28898">
        <ele>846</ele>
        <time>2000-01-01T01:24:27.000Z</time>
      </trkpt>
      <trkpt lat="46.01979" lon="6.28887">
        <ele>845</ele>
        <time>2000-01-01T01:24:37.000Z</time>
      </trkpt>
      <trkpt lat="46.0196" lon="6.28856">
        <ele>845</ele>
        <time>2000-01-01T01:24:47.000Z</time>
      </trkpt>
      <trkpt lat="46.01933" lon="6.2882">
        <ele>849</ele>
        <time>2000-01-01T01:24:57.000Z</time>
      </trkpt>
      <trkpt lat="46.01908" lon="6.28794">
        <ele>854</ele>
        <time>2000-01-01T01:25:07.000Z</time>
      </trkpt>
      <trkpt lat="46.01888" lon="6.28774">
        <ele>854</ele>
        <time>2000-01-01T01:25:17.000Z</time>
      </trkpt>
      <trkpt lat="46.01865" lon="6.28752">
        <ele>853</ele>
        <time>2000-01-01T01:25:27.000Z</time>
      </trkpt>
      <trkpt lat="46.01851" lon="6.2874">
        <ele>834.7</ele>
        <time>2000-01-01T01:25:37.000Z</time>
      </trkpt>
      <trkpt lat="46.01837" lon="6.28722">
        <ele>846</ele>
        <time>2000-01-01T01:25:47.000Z</time>
      </trkpt>
      <trkpt lat="46.01787" lon="6.28652">
        <ele>830.4</ele>
        <time>2000-01-01T01:26:07.000Z</time>
      </trkpt>
      <trkpt lat="46.01738" lon="6.28581">
        <ele>826.6</ele>
        <time>2000-01-01T01:26:27.000Z</time>
      </trkpt>
      <trkpt lat="46.01689" lon="6.2853">
        <ele>822.2</ele>
        <time>2000-01-01T01:26:57.000Z</time>
      </trkpt>
      <trkpt lat="46.01646" lon="6.28504">
        <ele>819.6</ele>
        <time>2000-01-01T01:27:37.000Z</time>
      </trkpt>
      <trkpt lat="46.01583" lon="6.28459">
        <ele>813.6</ele>
        <time>2000-01-01T01:28:37.000Z</time>
      </trkpt>
      <trkpt lat="46.0151" lon="6.28397">
        <ele>810.6</ele>
        <time>2000-01-01T01:29:17.000Z</time>
      </trkpt>
      <trkpt lat="46.0144" lon="6.28272">
        <ele>807.2</ele>
        <time>2000-01-01T01:30:07.000Z</time>
      </trkpt>
      <trkpt lat="46.01371" lon="6.28163">
        <ele>805.1</ele>
        <time>2000-01-01T01:30:47.000Z</time>
      </trkpt>
      <trkpt lat="46.01281" lon="6.28036">
        <ele>804.4</ele>
        <time>2000-01-01T01:31:17.000Z</time>
      </trkpt>
      <trkpt lat="46.01208" lon="6.27922">
        <ele>805.8</ele>
        <time>2000-01-01T01:33:07.000Z</time>
      </trkpt>
      <trkpt lat="46.01205" lon="6.27874">
        <ele>802.4</ele>
        <time>2000-01-01T01:33:37.000Z</time>
      </trkpt>
      <trkpt lat="46.01195" lon="6.27872">
        <ele>806</ele>
        <time>2000-01-01T01:33:47.000Z</time>
      </trkpt>
      <trkpt lat="46.01193" lon="6.27849">
        <ele>802.3</ele>
        <time>2000-01-01T01:33:57.000Z</time>
      </trkpt>
      <trkpt lat="46.01184" lon="6.27833">
        <ele>812</ele>
        <time>2000-01-01T01:34:07.000Z</time>
      </trkpt>
      <trkpt lat="46.0117" lon="6.27799">
        <ele>812</ele>
        <time>2000-01-01T01:34:17.000Z</time>
      </trkpt>
      <trkpt lat="46.01154" lon="6.27769">
        <ele>807</ele>
        <time>2000-01-01T01:34:27.000Z</time>
      </trkpt>
      <trkpt lat="46.01139" lon="6.27734">
        <ele>805</ele>
        <time>2000-01-01T01:34:37.000Z</time>
      </trkpt>
      <trkpt lat="46.01126" lon="6.27708">
        <ele>803</ele>
        <time>2000-01-01T01:34:47.000Z</time>
      </trkpt>
      <trkpt lat="46.01112" lon="6.27682">
        <ele>799</ele>
        <time>2000-01-01T01:34:57.000Z</time>
      </trkpt>
      <trkpt lat="46.01101" lon="6.27673">
        <ele>794.6</ele>
        <time>2000-01-01T01:35:07.000Z</time>
      </trkpt>
      <trkpt lat="46.01079" lon="6.27638">
        <ele>795</ele>
        <time>2000-01-01T01:35:17.000Z</time>
      </trkpt>
      <trkpt lat="46.01071" lon="6.27613">
        <ele>794</ele>
        <time>2000-01-01T01:35:27.000Z</time>
      </trkpt>
      <trkpt lat="46.01061" lon="6.27548">
        <ele>787</ele>
        <time>2000-01-01T01:35:37.000Z</time>
      </trkpt>
      <trkpt lat="46.01051" lon="6.27494">
        <ele>782</ele>
        <time>2000-01-01T01:35:47.000Z</time>
      </trkpt>
      <trkpt lat="46.01042" lon="6.27432">
        <ele>780</ele>
        <time>2000-01-01T01:35:57.000Z</time>
      </trkpt>
      <trkpt lat="46.01036" lon="6.27386">
        <ele>780</ele>
        <time>2000-01-01T01:36:07.000Z</time>
      </trkpt>
      <trkpt lat="46.0103" lon="6.27365">
        <ele>770.2</ele>
        <time>2000-01-01T01:36:17.000Z</time>
      </trkpt>
      <trkpt lat="46.0102" lon="6.27347">
        <ele>774</ele>
        <time>2000-01-01T01:36:27.000Z</time>
      </trkpt>
      <trkpt lat="46.01014" lon="6.2731">
        <ele>772</ele>
        <time>2000-01-01T01:36:37.000Z</time>
      </trkpt>
      <trkpt lat="46.01006" lon="6.2729">
        <ele>763.1</ele>
        <time>2000-01-01T01:36:47.000Z</time>
      </trkpt>
      <trkpt lat="46.0099" lon="6.27259">
        <ele>770</ele>
        <time>2000-01-01T01:36:57.000Z</time>
      </trkpt>
      <trkpt lat="46.00975" lon="6.27239">
        <ele>765</ele>
        <time>2000-01-01T01:37:07.000Z</time>
      </trkpt>
      <trkpt lat="46.00956" lon="6.27194">
        <ele>763</ele>
        <time>2000-01-01T01:37:17.000Z</time>
      </trkpt>
      <trkpt lat="46.00953" lon="6.27171">
        <ele>753.9</ele>
        <time>2000-01-01T01:37:27.000Z</time>
      </trkpt>
      <trkpt lat="46.00968" lon="6.27136">
        <ele>762</ele>
        <time>2000-01-01T01:37:37.000Z</time>
      </trkpt>
      <trkpt lat="46.00985" lon="6.27087">
        <ele>762</ele>
        <time>2000-01-01T01:37:47.000Z</time>
      </trkpt>
      <trkpt lat="46.00999" lon="6.27049">
        <ele>759</ele>
        <time>2000-01-01T01:37:57.000Z</time>
      </trkpt>
      <trkpt lat="46.01016" lon="6.27016">
        <ele>760</ele>
        <time>2000-01-01T01:38:07.000Z</time>
      </trkpt>
      <trkpt lat="46.01026" lon="6.26988">
        <ele>761</ele>
        <time>2000-01-01T01:38:17.000Z</time>
      </trkpt>
      <trkpt lat="46.01033" lon="6.2696">
        <ele>761</ele>
        <time>2000-01-01T01:38:27.000Z</time>
      </trkpt>
      <trkpt lat="46.01029" lon="6.26928">
        <ele>762</ele>
        <time>2000-01-01T01:38:37.000Z</time>
      </trkpt>
      <trkpt lat="46.01027" lon="6.26898">
        <ele>760</ele>
        <time>2000-01-01T01:38:47.000Z</time>
      </trkpt>
      <trkpt lat="46.01026" lon="6.26878">
        <ele>759.9</ele>
        <time>2000-01-01T01:38:57.000Z</time>
      </trkpt>
      <trkpt lat="46.01027" lon="6.2683">
        <ele>758</ele>
        <time>2000-01-01T01:39:07.000Z</time>
      </trkpt>
      <trkpt lat="46.01023" lon="6.26788">
        <ele>755</ele>
        <time>2000-01-01T01:39:17.000Z</time>
      </trkpt>
      <trkpt lat="46.01017" lon="6.26758">
        <ele>755</ele>
        <time>2000-01-01T01:39:27.000Z</time>
      </trkpt>
      <trkpt lat="46.01004" lon="6.26726">
        <ele>755</ele>
        <time>2000-01-01T01:39:37.000Z</time>
      </trkpt>
      <trkpt lat="46.00993" lon="6.26691">
        <ele>755</ele>
        <time>2000-01-01T01:39:47.000Z</time>
      </trkpt>
      <trkpt lat="46.00985" lon="6.26668">
        <ele>752.1</ele>
        <time>2000-01-01T01:39:57.000Z</time>
      </trkpt>
      <trkpt lat="46.0097" lon="6.2665">
        <ele>755</ele>
        <time>2000-01-01T01:40:07.000Z</time>
      </trkpt>
      <trkpt lat="46.00956" lon="6.26635">
        <ele>749.3</ele>
        <time>2000-01-01T01:40:17.000Z</time>
      </trkpt>
      <trkpt lat="46.00926" lon="6.2664">
        <ele>752</ele>
        <time>2000-01-01T01:40:27.000Z</time>
      </trkpt>
      <trkpt lat="46.00906" lon="6.26641">
        <ele>752</ele>
        <time>2000-01-01T01:40:37.000Z</time>
      </trkpt>
      <trkpt lat="46.00891" lon="6.2663">
        <ele>747.4</ele>
        <time>2000-01-01T01:40:47.000Z</time>
      </trkpt>
      <trkpt lat="46.00873" lon="6.26597">
        <ele>752</ele>
        <time>2000-01-01T01:40:57.000Z</time>
      </trkpt>
      <trkpt lat="46.00854" lon="6.26557">
        <ele>749</ele>
        <time>2000-01-01T01:41:07.000Z</time>
      </trkpt>
      <trkpt lat="46.00835" lon="6.26513">
        <ele>749</ele>
        <time>2000-01-01T01:41:17.000Z</time>
      </trkpt>
      <trkpt lat="46.00819" lon="6.26472">
        <ele>751</ele>
        <time>2000-01-01T01:41:27.000Z</time>
      </trkpt>
      <trkpt lat="46.00802" lon="6.26445">
        <ele>750</ele>
        <time>2000-01-01T01:41:37.000Z</time>
      </trkpt>
      <trkpt lat="46.00779" lon="6.26414">
        <ele>750</ele>
        <time>2000-01-01T01:41:47.000Z</time>
      </trkpt>
      <trkpt lat="46.00755" lon="6.26377">
        <ele>745</ele>
        <time>2000-01-01T01:41:57.000Z</time>
      </trkpt>
      <trkpt lat="46.0073" lon="6.26331">
        <ele>739</ele>
        <time>2000-01-01T01:42:07.000Z</time>
      </trkpt>
      <trkpt lat="46.00707" lon="6.26298">
        <ele>735</ele>
        <time>2000-01-01T01:42:17.000Z</time>
      </trkpt>
      <trkpt lat="46.00681" lon="6.26272">
        <ele>732</ele>
        <time>2000-01-01T01:42:27.000Z</time>
      </trkpt>
      <trkpt lat="46.00661" lon="6.26267">
        <ele>732</ele>
        <time>2000-01-01T01:42:37.000Z</time>
      </trkpt>
      <trkpt lat="46.00642" lon="6.26244">
        <ele>731</ele>
        <time>2000-01-01T01:42:47.000Z</time>
      </trkpt>
      <trkpt lat="46.00619" lon="6.26218">
        <ele>730</ele>
        <time>2000-01-01T01:42:57.000Z</time>
      </trkpt>
      <trkpt lat="46.00601" lon="6.26201">
        <ele>733</ele>
        <time>2000-01-01T01:43:07.000Z</time>
      </trkpt>
      <trkpt lat="46.00567" lon="6.26189">
        <ele>737</ele>
        <time>2000-01-01T01:43:17.000Z</time>
      </trkpt>
      <trkpt lat="46.00542" lon="6.26181">
        <ele>735</ele>
        <time>2000-01-01T01:43:27.000Z</time>
      </trkpt>
      <trkpt lat="46.00516" lon="6.26149">
        <ele>735</ele>
        <time>2000-01-01T01:43:37.000Z</time>
      </trkpt>
      <trkpt lat="46.00492" lon="6.2611">
        <ele>735</ele>
        <time>2000-01-01T01:43:47.000Z</time>
      </trkpt>
      <trkpt lat="46.00469" lon="6.26077">
        <ele>730</ele>
        <time>2000-01-01T01:43:57.000Z</time>
      </trkpt>
      <trkpt lat="46.00444" lon="6.26035">
        <ele>725</ele>
        <time>2000-01-01T01:44:07.000Z</time>
      </trkpt>
      <trkpt lat="46.00428" lon="6.25997">
        <ele>724</ele>
        <time>2000-01-01T01:44:17.000Z</time>
      </trkpt>
      <trkpt lat="46.00409" lon="6.25971">
        <ele>723</ele>
        <time>2000-01-01T01:44:27.000Z</time>
      </trkpt>
      <trkpt lat="46.00387" lon="6.25949">
        <ele>723</ele>
        <time>2000-01-01T01:44:37.000Z</time>
      </trkpt>
      <trkpt lat="46.00356" lon="6.2592">
        <ele>721</ele>
        <time>2000-01-01T01:44:47.000Z</time>
      </trkpt>
      <trkpt lat="46.00329" lon="6.25902">
        <ele>723</ele>
        <time>2000-01-01T01:44:57.000Z</time>
      </trkpt>
      <trkpt lat="46.00298" lon="6.25872">
        <ele>725</ele>
        <time>2000-01-01T01:45:07.000Z</time>
      </trkpt>
      <trkpt lat="46.00281" lon="6.25853">
        <ele>725</ele>
        <time>2000-01-01T01:45:17.000Z</time>
      </trkpt>
      <trkpt lat="46.00254" lon="6.25806">
        <ele>722</ele>
        <time>2000-01-01T01:45:27.000Z</time>
      </trkpt>
      <trkpt lat="46.00231" lon="6.2576">
        <ele>718</ele>
        <time>2000-01-01T01:45:37.000Z</time>
      </trkpt>
      <trkpt lat="46.00207" lon="6.25714">
        <ele>713</ele>
        <time>2000-01-01T01:45:47.000Z</time>
      </trkpt>
      <trkpt lat="46.00186" lon="6.25676">
        <ele>711</ele>
        <time>2000-01-01T01:45:57.000Z</time>
      </trkpt>
      <trkpt lat="46.00167" lon="6.25638">
        <ele>714</ele>
        <time>2000-01-01T01:46:07.000Z</time>
      </trkpt>
      <trkpt lat="46.00149" lon="6.25604">
        <ele>714</ele>
        <time>2000-01-01T01:46:17.000Z</time>
      </trkpt>
      <trkpt lat="46.00132" lon="6.25564">
        <ele>714</ele>
        <time>2000-01-01T01:46:27.000Z</time>
      </trkpt>
      <trkpt lat="46.00115" lon="6.25538">
        <ele>714</ele>
        <time>2000-01-01T01:46:37.000Z</time>
      </trkpt>
      <trkpt lat="46.00105" lon="6.25518">
        <ele>706.8</ele>
        <time>2000-01-01T01:46:47.000Z</time>
      </trkpt>
      <trkpt lat="46.00094" lon="6.25488">
        <ele>704</ele>
        <time>2000-01-01T01:46:57.000Z</time>
      </trkpt>
      <trkpt lat="46.00086" lon="6.25447">
        <ele>703</ele>
        <time>2000-01-01T01:47:07.000Z</time>
      </trkpt>
      <trkpt lat="46.00086" lon="6.25405">
        <ele>703</ele>
        <time>2000-01-01T01:47:17.000Z</time>
      </trkpt>
      <trkpt lat="46.00089" lon="6.25361">
        <ele>703</ele>
        <time>2000-01-01T01:47:27.000Z</time>
      </trkpt>
      <trkpt lat="46.00087" lon="6.25323">
        <ele>702</ele>
        <time>2000-01-01T01:47:37.000Z</time>
      </trkpt>
      <trkpt lat="46.00084" lon="6.25274">
        <ele>702</ele>
        <time>2000-01-01T01:47:47.000Z</time>
      </trkpt>
      <trkpt lat="46.00079" lon="6.25238">
        <ele>701</ele>
        <time>2000-01-01T01:47:57.000Z</time>
      </trkpt>
      <trkpt lat="46.00075" lon="6.25202">
        <ele>700</ele>
        <time>2000-01-01T01:48:07.000Z</time>
      </trkpt>
      <trkpt lat="46.0007" lon="6.25168">
        <ele>700</ele>
        <time>2000-01-01T01:48:17.000Z</time>
      </trkpt>
      <trkpt lat="46.00058" lon="6.25142">
        <ele>700</ele>
        <time>2000-01-01T01:48:27.000Z</time>
      </trkpt>
      <trkpt lat="46.00041" lon="6.25128">
        <ele>698</ele>
        <time>2000-01-01T01:48:37.000Z</time>
      </trkpt>
      <trkpt lat="46.00015" lon="6.25116">
        <ele>693</ele>
        <time>2000-01-01T01:48:47.000Z</time>
      </trkpt>
      <trkpt lat="45.99977" lon="6.251">
        <ele>693</ele>
        <time>2000-01-01T01:48:57.000Z</time>
      </trkpt>
      <trkpt lat="45.99947" lon="6.25084">
        <ele>691</ele>
        <time>2000-01-01T01:49:07.000Z</time>
      </trkpt>
      <trkpt lat="45.99918" lon="6.25068">
        <ele>691</ele>
        <time>2000-01-01T01:49:17.000Z</time>
      </trkpt>
      <trkpt lat="45.99886" lon="6.25051">
        <ele>691</ele>
        <time>2000-01-01T01:49:27.000Z</time>
      </trkpt>
      <trkpt lat="45.9986" lon="6.25043">
        <ele>691</ele>
        <time>2000-01-01T01:49:37.000Z</time>
      </trkpt>
      <trkpt lat="45.99814" lon="6.25033">
        <ele>689</ele>
        <time>2000-01-01T01:49:47.000Z</time>
      </trkpt>
      <trkpt lat="45.99791" lon="6.25024">
        <ele>683</ele>
        <time>2000-01-01T01:49:57.000Z</time>
      </trkpt>
      <trkpt lat="45.99755" lon="6.25005">
        <ele>683</ele>
        <time>2000-01-01T01:50:07.000Z</time>
      </trkpt>
      <trkpt lat="45.99741" lon="6.24995">
        <ele>683</ele>
        <time>2000-01-01T01:50:17.000Z</time>
      </trkpt>
    </trkseg>
  </trk>
</gpx>